Time;durP1;ratioP1;P1;durP2;ratioP2;P2;SDS_P1;SDS_P2;PMS_P1;PMS_P2;Temp;Humidity;BMP_temperature;BMP_pressure;BME280_temperature;BME280_humidity;BME280_pressure;Samples;Min_cycle;Max_cycle;Signal;HPM_P1;HPM_P2
2022/05/16 00:02:16;;;;;;;13.38;5.15;;;15.20;99.90;;;14.05;96.31;100440.56;4918384;29;20143;-88
2022/05/16 00:04:48;;;;;;;11.32;5.22;;;15.20;99.90;;;14.02;97.00;100433.63;4927686;29;20086;-88
2022/05/16 00:07:16;;;;;;;11.65;4.82;;;15.10;99.90;;;13.98;96.95;100440.56;4905061;29;20105;-87
2022/05/16 00:09:43;;;;;;;12.07;4.97;;;15.10;99.90;;;13.95;97.09;100437.41;4911894;29;20056;-89
2022/05/16 00:12:12;;;;;;;9.30;4.93;;;15.10;99.90;;;13.91;97.02;100431.50;4911122;29;20041;-88
2022/05/16 00:14:46;;;;;;;11.13;5.50;;;15.00;99.90;;;13.85;97.72;100429.59;4905574;29;20115;-87
2022/05/16 00:17:17;;;;;;;13.00;5.05;;;15.00;99.90;;;13.89;97.93;100428.97;4911696;29;20040;-87
2022/05/16 00:19:47;;;;;;;10.15;5.78;;;15.00;99.90;;;13.89;97.87;100425.41;4911615;29;20051;-87
2022/05/16 00:22:15;;;;;;;10.60;5.30;;;14.90;99.90;;;13.87;97.91;100422.88;4909818;29;20052;-88
2022/05/16 00:24:43;;;;;;;9.93;5.22;;;14.90;99.90;;;13.87;98.14;100424.75;4915030;29;20425;-88
2022/05/16 00:27:12;;;;;;;10.98;5.30;;;15.00;99.90;;;13.86;97.60;100417.63;4911542;29;20044;-87
2022/05/16 00:29:44;;;;;;;10.35;5.13;;;14.90;99.90;;;13.84;97.83;100422.44;4911626;29;20044;-89
2022/05/16 00:32:13;;;;;;;13.88;5.85;;;14.90;99.90;;;13.84;97.40;100422.44;4912799;29;20096;-88
2022/05/16 00:34:41;;;;;;;10.13;5.00;;;14.90;99.90;;;13.85;97.11;100424.13;4912239;29;20099;-87
2022/05/16 00:37:08;;;;;;;10.15;5.13;;;14.90;99.90;;;13.91;96.93;100423.28;4913176;29;20044;-88
2022/05/16 00:39:38;;;;;;;12.02;5.47;;;14.90;99.90;;;13.89;96.63;100414.44;4912248;29;20055;-87
2022/05/16 00:42:06;;;;;;;11.27;4.85;;;15.00;99.90;;;13.91;96.78;100417.81;4910951;29;20067;-87
2022/05/16 00:44:35;;;;;;;13.07;5.22;;;15.00;99.90;;;13.85;97.25;100411.28;4913056;29;20044;-88
2022/05/16 00:47:08;;;;;;;13.30;5.53;;;15.00;99.90;;;13.86;97.08;100406.69;4916569;29;20127;-87
2022/05/16 00:49:42;;;;;;;15.35;5.63;;;15.00;99.90;;;13.85;96.88;100413.19;4918078;29;20131;-88
2022/05/16 00:52:15;;;;;;;10.38;5.70;;;14.90;99.90;;;13.85;96.81;100407.72;4919916;29;20139;-88
2022/05/16 00:54:49;;;;;;;10.80;5.38;;;14.90;99.90;;;13.80;97.13;100399.28;4927407;29;20060;-87
2022/05/16 00:57:21;;;;;;;9.50;5.13;;;14.90;99.90;;;13.85;96.89;100411.28;4927159;29;20058;-87
2022/05/16 00:59:55;;;;;;;10.77;5.28;;;15.00;99.90;;;13.85;96.78;100408.56;4923914;29;20501;-87
2022/05/16 01:05:13;;;;;;;10.60;5.30;;;15.00;99.90;;;13.87;96.43;100405.63;4915045;29;20072;-88
2022/05/16 01:07:43;;;;;;;11.02;5.38;;;15.10;99.90;;;13.89;96.25;100401.59;4915157;29;20386;-88
2022/05/16 01:10:15;;;;;;;15.05;5.57;;;15.10;99.90;;;13.88;96.06;100399.94;4914548;29;20537;-88
2022/05/16 01:12:46;;;;;;;10.27;5.00;;;15.10;99.90;;;13.86;95.72;100390.28;4915064;29;20428;-87
2022/05/16 01:15:17;;;;;;;11.38;5.07;;;15.00;99.90;;;13.84;96.36;100393.22;4915881;29;20079;-88
2022/05/16 01:17:46;;;;;;;12.63;5.95;;;15.00;99.90;;;13.79;96.40;100394.88;4930925;29;20054;-88
2022/05/16 01:20:13;;;;;;;13.23;5.25;;;15.00;99.90;;;13.75;96.92;100388.16;4918893;29;20119;-88
2022/05/16 01:22:45;;;;;;;11.48;5.38;;;15.00;99.90;;;13.76;96.97;100384.34;4915997;29;20054;-87
2022/05/16 01:25:17;;;;;;;12.35;4.95;;;15.00;99.90;;;13.73;96.94;100387.50;4915909;29;20119;-88
2022/05/16 01:27:47;;;;;;;;;;;14.90;99.90;;;13.71;96.91;100379.53;4916429;29;20565;-88
2022/05/16 01:30:18;;;;;;;11.35;5.95;;;14.90;99.90;;;13.69;97.14;100385.19;4914284;29;19923;-87
2022/05/16 01:32:45;;;;;;;10.13;5.35;;;14.80;99.90;;;13.67;97.65;100378.25;4912205;29;20091;-87
2022/05/16 01:35:17;;;;;;;11.13;5.40;;;14.80;99.90;;;13.65;97.89;100372.13;4911664;29;20127;-87
2022/05/16 01:40:31;;;;;;;12.00;5.55;;;14.70;99.90;;;13.60;97.45;100378.22;4927312;29;20044;-87
2022/05/16 01:42:58;;;;;;;11.10;5.10;;;14.70;99.90;;;13.57;98.06;100375.91;4914194;29;20586;-87
2022/05/16 01:45:25;;;;;;;13.40;5.63;;;14.70;99.90;;;13.56;97.98;100374.22;4914355;29;20119;-87
2022/05/16 01:47:53;;;;;;;11.45;5.57;;;14.70;99.90;;;13.53;98.44;100373.81;4915294;29;20067;-88
2022/05/16 01:50:22;;;;;;;9.98;5.45;;;14.70;99.90;;;13.48;98.99;100380.75;4916480;29;20404;-87
2022/05/16 01:52:51;;;;;;;9.65;5.30;;;14.60;99.90;;;13.51;98.79;100367.69;4922013;29;20522;-88
2022/05/16 01:55:19;;;;;;;9.07;5.22;;;14.60;99.90;;;13.47;98.98;100372.75;4928770;29;20075;-87
2022/05/16 01:57:46;;;;;;;9.88;5.28;;;14.60;99.90;;;13.48;98.99;100368.97;4918712;29;20055;-88
2022/05/16 02:00:17;;;;;;;11.68;5.30;;;14.60;99.90;;;13.45;99.35;100363.91;4914228;29;20052;-86
2022/05/16 02:02:45;;;;;;;;;;;14.50;99.90;;;13.45;99.37;100369.38;4915606;29;20043;-88
2022/05/16 02:05:16;;;;;;;9.10;5.15;;;14.50;99.90;;;13.41;99.41;100368.94;4923785;29;19933;-88
2022/05/16 02:07:43;;;;;;;13.05;5.70;;;14.50;99.90;;;13.41;100.00;100368.94;4915124;29;20521;-88
2022/05/16 02:10:15;;;;;;;11.48;5.60;;;14.50;99.90;;;13.37;100.00;100366.84;4914793;29;20044;-87
2022/05/16 02:12:43;;;;;;;12.48;5.25;;;14.50;99.90;;;13.33;100.00;100354.59;4915218;29;20056;-87
2022/05/16 02:15:14;;;;;;;10.95;5.10;;;14.50;99.90;;;13.30;100.00;100353.97;4913418;29;20498;-87
2022/05/16 02:17:41;;;;;;;9.38;4.90;;;14.50;99.90;;;13.30;100.00;100347.69;4912747;29;20139;-87
2022/05/16 02:20:10;;;;;;;14.15;5.22;;;14.50;99.90;;;13.27;100.00;100346.19;4911725;29;20044;-88
2022/05/16 02:25:25;;;;;;;11.48;5.63;;;14.50;99.90;;;13.25;100.00;100340.09;4931143;29;20047;-87
2022/05/16 02:27:53;;;;;;;13.63;5.70;;;14.40;99.90;;;13.30;100.00;100348.50;4912426;29;20453;-87
2022/05/16 02:30:22;;;;;;;10.45;5.43;;;14.30;99.90;;;13.24;100.00;100335.66;4913371;29;20139;-87
2022/05/16 02:32:50;;;;;;;11.43;5.90;;;14.30;99.90;;;13.22;100.00;100326.81;4894573;29;20052;-87
2022/05/16 02:35:18;;;;;;;11.82;5.32;;;14.30;99.90;;;13.19;100.00;100332.69;4895947;29;20049;-87
2022/05/16 02:37:45;;;;;;;10.23;5.22;;;14.30;99.90;;;13.15;100.00;100328.69;4912335;29;20080;-88
2022/05/16 02:40:13;;;;;;;10.40;5.53;;;14.30;99.90;;;13.18;100.00;100314.63;4922778;29;20052;-88
2022/05/16 02:42:42;;;;;;;12.82;5.68;;;14.30;99.90;;;13.17;100.00;100318.38;4895800;29;20051;-88
2022/05/16 02:45:11;;;;;;;11.73;6.22;;;14.30;99.90;;;13.20;100.00;100311.69;4911743;29;20048;-88
2022/05/16 02:47:38;;;;;;;11.27;5.75;;;14.40;99.90;;;13.21;100.00;100318.81;4912753;29;20135;-88
2022/05/16 02:50:06;;;;;;;11.65;5.80;;;14.30;99.90;;;13.21;100.00;100314.22;4912707;29;20052;-88
2022/05/16 02:52:34;;;;;;;10.10;5.53;;;14.30;99.90;;;13.22;100.00;100299.50;4907068;29;20052;-87
2022/05/16 02:55:01;;;;;;;12.32;5.70;;;14.30;99.90;;;13.21;100.00;100306.03;4908244;29;20088;-88
2022/05/16 02:57:29;;;;;;;11.88;6.15;;;14.30;99.90;;;13.23;100.00;100301.19;4908695;29;20049;-87
2022/05/16 02:59:58;;;;;;;10.73;6.00;;;14.30;99.90;;;13.19;100.00;100299.06;4916775;29;20114;-87
2022/05/16 03:02:27;;;;;;;10.73;5.75;;;14.30;99.90;;;13.17;100.00;100296.53;4952243;23;21648;-93
2022/05/16 03:04:54;;;;;;;13.05;5.90;;;14.30;99.90;;;13.14;100.00;100302.44;4973358;28;20084;-90
2022/05/16 03:07:22;;;;;;;10.43;6.13;;;14.20;99.90;;;13.13;100.00;100300.72;4981331;28;20078;-91
2022/05/16 03:09:49;;;;;;;13.55;6.25;;;14.20;99.90;;;13.11;100.00;100290.00;4975630;28;20042;-91
2022/05/16 03:12:17;;;;;;;12.88;5.60;;;14.20;99.90;;;13.07;100.00;100290.63;4968175;28;20054;-91
2022/05/16 03:14:44;;;;;;;13.50;5.90;;;14.20;99.90;;;13.06;100.00;100288.94;4940049;28;20047;-91
2022/05/16 03:17:13;;;;;;;10.73;6.03;;;14.20;99.90;;;13.05;100.00;100290.00;4937064;29;20070;-91
2022/05/16 03:19:40;;;;;;;10.88;5.97;;;14.10;99.90;;;13.06;100.00;100294.41;4937129;29;20066;-91
2022/05/16 03:22:08;;;;;;;12.05;5.78;;;14.10;99.90;;;13.05;100.00;100296.28;4933544;29;20098;-91
2022/05/16 03:24:36;;;;;;;10.93;5.65;;;14.10;99.90;;;12.99;100.00;100288.94;4956834;28;20062;-90
2022/05/16 03:27:06;;;;;;;12.55;6.45;;;14.10;99.90;;;13.01;100.00;100292.28;4937213;29;20051;-91
2022/05/16 03:29:34;;;;;;;11.70;5.80;;;14.00;99.90;;;12.97;100.00;100288.31;4953406;28;20050;-90
2022/05/16 03:32:01;;;;;;;11.30;5.70;;;14.00;99.90;;;12.98;100.00;100289.13;4937004;28;20047;-92
2022/05/16 03:34:30;;;;;;;11.70;5.85;;;14.00;99.90;;;12.98;100.00;100291.88;4937095;29;20472;-91
2022/05/16 03:37:01;;;;;;;8.65;6.22;;;14.00;99.90;;;12.97;100.00;100292.94;4936771;28;20047;-91
2022/05/16 03:42:19;;;;;;;12.13;6.10;;;14.00;99.90;;;12.94;100.00;100296.06;4934559;29;20040;-87
2022/05/16 03:44:46;;;;;;;12.23;5.75;;;14.00;99.90;;;12.97;100.00;100296.50;4935507;29;20073;-89
2022/05/16 03:47:14;;;;;;;12.25;6.03;;;14.00;99.90;;;12.93;100.00;100291.63;4948826;28;20130;-88
2022/05/16 03:49:43;;;;;;;9.18;5.75;;;13.90;99.90;;;12.90;100.00;100296.47;4937050;28;20051;-87
2022/05/16 03:52:10;;;;;;;12.07;6.20;;;14.00;99.90;;;12.93;100.00;100291.63;4959062;28;20051;-87
2022/05/16 03:54:37;;;;;;;15.05;6.38;;;14.00;99.90;;;12.91;100.00;100292.69;4941011;28;20051;-89
2022/05/16 03:57:05;;;;;;;12.95;6.20;;;13.90;99.90;;;12.92;100.00;100288.06;4948760;28;20079;-88
2022/05/16 03:59:32;;;;;;;11.90;6.38;;;14.00;99.90;;;12.91;100.00;100286.41;4949513;28;20768;-88
2022/05/16 04:02:00;;;;;;;17.67;6.90;;;14.00;99.90;;;12.90;100.00;100291.00;4946708;28;20043;-87
2022/05/16 04:04:27;;;;;;;13.85;6.55;;;14.00;99.90;;;12.89;100.00;100289.31;4934413;29;20047;-88
2022/05/16 04:06:56;;;;;;;11.55;6.03;;;14.00;99.90;;;12.87;100.00;100296.03;4963929;28;20047;-87
2022/05/16 04:09:23;;;;;;;10.02;6.32;;;14.00;99.90;;;12.87;100.00;100288.69;4951503;29;20082;-88
2022/05/16 04:11:51;;;;;;;13.38;6.53;;;14.00;99.90;;;12.89;100.00;100283.88;4951203;29;20123;-88
2022/05/16 04:14:18;;;;;;;15.40;6.50;;;14.00;99.90;;;12.94;100.00;100291.44;4949934;28;20573;-86
2022/05/16 04:16:45;;;;;;;10.02;6.43;;;14.00;99.90;;;12.97;100.00;100280.09;4949625;28;20044;-88
2022/05/16 04:19:13;;;;;;;13.73;7.13;;;14.00;99.90;;;12.99;100.00;100282.63;4966934;28;20074;-88
2022/05/16 04:21:40;;;;;;;14.57;7.18;;;14.00;99.90;;;12.98;100.00;100275.47;4967275;28;20131;-88
2022/05/16 04:24:10;;;;;;;12.07;6.40;;;14.10;99.90;;;12.95;100.00;100286.84;4932634;29;20501;-89
2022/05/16 04:26:37;;;;;;;14.40;6.57;;;14.10;99.90;;;12.97;100.00;100282.84;4915965;29;20401;-87
2022/05/16 04:29:05;;;;;;;11.80;6.63;;;14.10;99.90;;;13.01;100.00;100294.19;4954678;29;20595;-87
2022/05/16 04:31:32;;;;;;;14.45;6.68;;;14.20;99.90;;;13.06;100.00;100286.19;4955406;29;20496;-88
2022/05/16 04:34:00;;;;;;;12.32;6.32;;;14.20;99.90;;;13.08;100.00;100275.94;4936333;28;20111;-87
2022/05/16 04:36:27;;;;;;;12.73;6.78;;;14.30;99.90;;;13.13;100.00;100276.13;4963526;28;20042;-88
2022/05/16 04:38:54;;;;;;;12.85;6.75;;;14.40;99.90;;;13.12;100.00;100279.94;4938157;28;20082;-87
2022/05/16 04:44:08;;;;;;;11.57;6.90;;;14.40;99.90;;;13.16;100.00;100278.47;4958787;28;20112;-88
2022/05/16 04:46:35;;;;;;;13.77;6.47;;;14.40;99.90;;;13.19;100.00;100272.56;4957397;28;20047;-85
2022/05/16 04:49:03;;;;;;;14.90;7.00;;;14.50;99.90;;;13.23;100.00;100278.47;4941178;29;20047;-88
2022/05/16 04:51:30;;;;;;;14.38;7.40;;;14.50;99.90;;;13.25;100.00;100274.50;4957292;28;20047;-90
2022/05/16 04:53:58;;;;;;;15.60;7.35;;;14.60;99.90;;;13.30;100.00;100276.63;4970843;28;20062;-89
2022/05/16 04:56:27;;;;;;;11.77;7.03;;;14.80;99.90;;;13.40;100.00;100278.94;4958120;28;20511;-90
2022/05/16 04:58:54;;;;;;;11.77;6.90;;;14.90;99.90;;;13.40;100.00;100277.06;4942364;28;20142;-91
2022/05/16 05:01:22;;;;;;;13.52;7.22;;;14.90;99.90;;;13.46;100.00;100272.63;4955384;28;20102;-92
2022/05/16 05:03:49;;;;;;;11.43;6.63;;;15.00;99.90;;;13.58;100.00;100278.31;4936216;29;20074;-90
2022/05/16 05:06:18;;;;;;;12.80;6.80;;;15.10;99.90;;;13.65;100.00;100270.94;4947680;28;20038;-90
2022/05/16 05:08:45;;;;;;;14.43;6.78;;;15.20;99.90;;;13.76;100.00;100277.69;4944914;29;20058;-91
2022/05/16 05:16:44;;;;;;;13.00;6.32;;;15.60;99.90;;;13.99;100.00;100275.34;4939702;29;20035;-89
2022/05/16 05:19:12;;;;;;;11.70;6.80;;;15.70;99.90;;;14.08;100.00;100276.78;4971458;28;20074;-89
2022/05/16 05:21:39;;;;;;;13.85;6.68;;;15.70;99.90;;;14.11;100.00;100267.34;4936576;29;20047;-90
2022/05/16 05:24:08;;;;;;;16.20;6.50;;;15.80;99.90;;;14.16;100.00;100274.88;4963871;28;20118;-90
2022/05/16 05:26:36;;;;;;;13.98;7.00;;;15.90;99.90;;;14.27;100.00;100282.44;4952185;29;20055;-91
2022/05/16 05:29:05;;;;;;;12.75;6.65;;;16.00;99.90;;;14.36;100.00;100278.41;4939300;29;20102;-91
2022/05/16 05:31:33;;;;;;;15.02;7.30;;;16.10;99.90;;;14.48;100.00;100275.84;4939450;28;20138;-92
2022/05/16 05:34:03;;;;;;;13.05;6.72;;;16.30;99.90;;;14.48;100.00;100293.09;4939149;28;20051;-91
2022/05/16 05:36:31;;;;;;;13.65;7.25;;;16.40;99.90;;;14.51;100.00;100291.84;4936872;29;20051;-91
2022/05/16 05:38:59;;;;;;;12.65;6.25;;;16.50;99.90;;;14.53;100.00;100297.94;4934741;28;20102;-91
2022/05/16 05:41:26;;;;;;;10.15;6.43;;;16.60;99.90;;;14.58;100.00;100298.19;4965738;28;20137;-91
2022/05/16 05:43:54;;;;;;;15.10;6.47;;;16.70;99.90;;;14.62;99.62;100298.56;4942134;29;20074;-92
2022/05/16 05:46:23;;;;;;;12.30;7.45;;;16.70;99.90;;;14.70;100.00;100294.75;4938246;29;20443;-90
2022/05/16 05:48:50;;;;;;;11.35;6.32;;;16.80;99.90;;;14.73;100.00;100297.88;4938965;28;20423;-91
2022/05/16 05:51:18;;;;;;;17.42;5.78;;;16.90;99.90;;;14.80;100.00;100297.88;4967101;28;20039;-91
2022/05/16 05:53:46;;;;;;;14.43;5.85;;;17.00;99.90;;;14.86;100.00;100289.59;4938519;29;20051;-92
2022/05/16 05:56:15;;;;;;;13.43;6.30;;;17.10;99.90;;;14.86;100.00;100295.09;4929962;28;20685;-92
2022/05/16 05:58:43;;;;;;;14.77;6.60;;;17.10;99.90;;;14.91;100.00;100296.31;4944863;28;20051;-92
2022/05/16 06:01:11;;;;;;;11.73;6.07;;;17.10;99.90;;;14.92;100.00;100303.50;4958504;28;20047;-91
2022/05/16 06:03:40;;;;;;;14.88;6.00;;;17.10;99.90;;;14.93;100.00;100294.25;4948705;28;20050;-91
2022/05/16 06:06:08;;;;;;;13.00;6.28;;;17.20;99.90;;;14.94;100.00;100287.69;4941102;28;20071;-91
2022/05/16 06:08:35;;;;;;;10.85;5.72;;;17.20;99.90;;;14.96;100.00;100291.88;4941758;28;20050;-91
2022/05/16 06:11:03;;;;;;;14.88;6.65;;;17.30;99.90;;;15.01;100.00;100291.22;4939680;28;20098;-90
2022/05/16 06:13:30;;;;;;;13.82;6.50;;;17.30;99.90;;;15.04;100.00;100293.50;4940438;28;20055;-89
2022/05/16 06:15:58;;;;;;;19.70;6.18;;;17.30;99.90;;;15.07;100.00;100295.81;4938541;29;20070;-91
2022/05/16 06:18:26;;;;;;;14.48;6.00;;;17.40;99.90;;;15.10;100.00;100295.41;4956754;28;20516;-91
2022/05/16 06:20:55;;;;;;;10.25;5.63;;;17.40;99.90;;;15.14;100.00;100302.13;4932232;29;20043;-90
2022/05/16 06:23:22;;;;;;;13.07;6.10;;;17.40;99.90;;;15.19;100.00;100293.22;4935259;28;20039;-91
2022/05/16 06:25:52;;;;;;;15.32;7.13;;;17.50;99.90;;;15.20;100.00;100295.75;4942303;28;20047;-91
2022/05/16 06:28:22;;;;;;;21.27;6.38;;;17.50;99.90;;;15.23;100.00;100298.06;4960958;28;20129;-87
2022/05/16 06:30:53;;;;;;;15.13;6.60;;;17.50;99.90;;;15.24;100.00;100296.97;4963231;28;20043;-90
2022/05/16 06:33:22;;;;;;;;;;;17.60;99.90;;;15.38;100.00;100308.72;4930298;28;20060;-90
2022/05/16 06:35:50;;;;;;;15.75;6.47;;;17.60;99.90;;;15.37;100.00;100303.44;4949993;28;19933;-90
2022/05/16 06:38:23;;;;;;;12.93;6.38;;;17.60;99.90;;;15.37;100.00;100312.50;4929928;29;20040;-89
2022/05/16 06:40:55;;;;;;;13.45;6.30;;;17.70;99.90;;;15.39;100.00;100315.88;4955252;28;20043;-90
2022/05/16 06:43:27;;;;;;;12.25;6.05;;;17.70;99.90;;;15.40;100.00;100306.59;4928244;28;20058;-91
2022/05/16 06:45:54;;;;;;;;;;;17.80;99.90;;;15.44;100.00;100304.25;4929941;28;20403;-89
2022/05/16 06:48:22;;;;;;;19.48;6.40;;;17.80;99.90;;;15.48;100.00;100305.50;4953971;28;20383;-90
2022/05/16 06:50:50;;;;;;;18.52;6.85;;;17.90;99.90;;;15.54;100.00;100307.34;4937313;29;20063;-90
2022/05/16 06:53:24;;;;;;;14.48;6.53;;;18.00;99.90;;;15.62;100.00;100304.31;4939550;28;20519;-90
2022/05/16 06:55:51;;;;;;;20.73;6.30;;;18.20;99.70;;;15.70;100.00;100310.59;4919257;29;20451;-92
2022/05/16 06:58:19;;;;;;;16.23;5.97;;;18.30;99.50;;;15.78;100.00;100313.06;4925388;29;20043;-92
2022/05/16 07:00:47;;;;;;;17.88;6.15;;;18.30;99.90;;;15.93;99.15;100316.31;4953608;28;20150;-91
2022/05/16 07:03:14;;;;;;;14.32;6.03;;;18.30;99.60;;;15.83;99.51;100324.22;4937227;28;20047;-93
2022/05/16 07:05:42;;;;;;;12.85;6.35;;;18.30;99.60;;;15.80;100.00;100327.41;4937505;29;20051;-92
2022/05/16 07:08:10;;;;;;;18.55;6.72;;;18.30;99.80;;;15.80;100.00;100330.16;4936673;28;20043;-92
2022/05/16 07:10:39;;;;;;;17.10;5.80;;;18.30;99.90;;;15.82;100.00;100336.25;4937546;29;20113;-92
2022/05/16 07:13:08;;;;;;;13.45;6.55;;;18.20;99.90;;;15.81;100.00;100340.09;4937692;29;20054;-93
2022/05/16 07:15:35;;;;;;;14.02;6.00;;;18.20;99.90;;;15.82;100.00;100344.50;4937841;29;20448;-93
2022/05/16 07:18:03;;;;;;;15.00;5.57;;;18.20;99.90;;;15.83;100.00;100349.75;4937454;29;20047;-92
2022/05/16 07:20:30;;;;;;;12.75;5.63;;;18.10;99.90;;;15.83;100.00;100351.66;4937245;29;20039;-93
2022/05/16 07:22:58;;;;;;;12.98;5.30;;;18.10;99.90;;;15.83;100.00;100355.25;4942681;28;20058;-91
2022/05/16 07:25:28;;;;;;;12.20;5.10;;;18.10;99.90;;;15.84;100.00;100364.34;4948544;29;20059;-91
2022/05/16 07:27:56;;;;;;;12.30;4.67;;;18.10;99.90;;;15.89;100.00;100371.91;4927858;29;20102;-91
2022/05/16 07:30:25;;;;;;;12.40;4.75;;;18.10;99.90;;;15.88;100.00;100373.81;4951150;29;20330;-90
2022/05/16 07:32:55;;;;;;;9.93;4.18;;;18.10;99.90;;;15.88;100.00;100368.31;4936602;29;20086;-90
2022/05/16 07:35:26;;;;;;;9.27;4.18;;;18.10;99.90;;;15.89;100.00;100375.47;4936380;29;20048;-90
2022/05/16 07:37:54;;;;;;;11.07;4.20;;;18.10;99.90;;;15.88;100.00;100379.28;4935769;29;20047;-90
2022/05/16 07:40:25;;;;;;;8.35;4.07;;;18.20;99.90;;;15.93;100.00;100376.69;4928260;28;20138;-90
2022/05/16 07:42:54;;;;;;;11.93;4.15;;;18.20;99.90;;;15.93;100.00;100387.69;4941082;28;20051;-90
2022/05/16 07:45:24;;;;;;;12.75;4.60;;;18.30;99.90;;;16.05;100.00;100390.56;4953317;29;20114;-91
2022/05/16 07:47:52;;;;;;;10.57;3.75;;;18.30;99.90;;;16.04;100.00;100399.84;4935813;29;20055;-91
2022/05/16 07:50:20;;;;;;;12.30;4.00;;;18.30;99.90;;;16.09;100.00;100397.28;4952689;28;20098;-91
2022/05/16 07:52:47;;;;;;;10.63;3.72;;;18.30;99.90;;;16.12;99.56;100402.31;4923168;29;20051;-91
2022/05/16 07:55:17;;;;;;;10.93;3.80;;;18.30;99.90;;;16.07;99.20;100404.91;4948557;29;20070;-91
2022/05/16 07:57:45;;;;;;;9.55;3.63;;;18.30;99.90;;;16.06;99.14;100405.97;4935199;29;20751;-90
2022/05/16 08:00:14;;;;;;;10.27;3.35;;;18.40;99.80;;;16.11;99.34;100400.63;4952444;28;20059;-89
2022/05/16 08:02:43;;;;;;;7.40;3.10;;;18.40;99.90;;;16.12;99.23;100406.97;4946840;28;20047;-90
2022/05/16 08:05:15;;;;;;;9.68;3.88;;;18.50;99.90;;;16.15;98.88;100412.03;4940534;28;20051;-89
2022/05/16 08:10:32;;;;;;;7.72;3.80;;;18.60;99.50;;;16.20;99.68;100410.28;4944500;29;20043;-91
2022/05/16 08:13:01;;;;;;;8.93;4.00;;;18.70;99.50;;;16.25;98.88;100404.09;4939271;29;20047;-90
2022/05/16 08:15:30;;;;;;;10.65;4.15;;;18.70;99.30;;;16.32;98.68;100404.91;4940375;29;20504;-92
2022/05/16 08:17:59;;;;;;;11.30;3.85;;;18.80;99.00;;;16.36;99.21;100408.88;4926385;29;20043;-90
2022/05/16 08:20:27;;;;;;;13.68;3.92;;;18.90;99.10;;;16.36;99.03;100414.34;4936818;29;20062;-89
2022/05/16 08:22:55;;;;;;;9.13;3.55;;;18.90;99.10;;;16.36;97.96;100414.34;4939638;29;20072;-91
2022/05/16 08:25:23;;;;;;;8.40;3.90;;;18.80;98.50;;;16.36;98.42;100413.53;4938787;29;20531;-89
2022/05/16 08:27:51;;;;;;;7.18;3.67;;;18.80;99.00;;;16.35;98.37;100417.31;4943638;28;20774;-89
2022/05/16 08:30:21;;;;;;;10.18;4.07;;;18.70;99.10;;;16.32;98.40;100413.13;4975550;28;20074;-87
2022/05/16 08:32:49;;;;;;;10.30;3.85;;;18.70;99.40;;;16.35;99.13;100420.91;4945467;29;20078;-89
2022/05/16 08:35:23;;;;;;;8.98;3.80;;;18.60;99.70;;;16.32;99.22;100420.53;4936820;29;20051;-89
2022/05/16 08:40:48;;;;;;;9.15;3.92;;;18.40;99.90;;;16.28;100.00;100431.13;4970616;28;20101;-91
2022/05/16 08:43:19;;;;;;;10.20;4.55;;;18.50;99.90;;;16.27;100.00;100426.69;4938070;29;20051;-90
2022/05/16 08:45:58;;;;;;;8.25;4.70;;;18.40;99.90;;;16.27;100.00;100431.34;4939415;29;20055;-90
2022/05/16 08:48:33;;;;;;;9.45;4.32;;;18.40;99.90;;;16.25;100.00;100425.25;4944404;29;20736;-90
2022/05/16 08:51:08;;;;;;;7.72;4.70;;;18.40;99.90;;;16.27;100.00;100437.66;4934036;29;20047;-91
2022/05/16 08:53:43;;;;;;;12.18;4.45;;;18.40;99.90;;;16.28;100.00;100427.53;4937363;28;20109;-90
2022/05/16 08:56:17;;;;;;;9.80;4.38;;;18.50;99.90;;;16.28;100.00;100424.78;4942930;29;20047;-89
2022/05/16 08:58:52;;;;;;;8.10;4.18;;;18.40;99.90;;;16.29;100.00;100424.56;4954329;28;20047;-90
2022/05/16 09:01:26;;;;;;;10.40;3.70;;;18.50;99.90;;;16.29;100.00;100419.06;4935573;29;20047;-88
2022/05/16 09:03:59;;;;;;;11.13;4.15;;;18.50;99.90;;;16.29;100.00;100413.56;4937709;29;20058;-90
2022/05/16 09:06:39;;;;;;;16.33;4.30;;;18.50;99.90;;;16.29;100.00;100413.56;4967647;28;20046;-91
2022/05/16 09:09:13;;;;;;;8.53;4.03;;;18.50;99.90;;;16.29;100.00;100413.56;4937302;28;20142;-91
2022/05/16 09:12:01;;;;;;;11.23;4.05;;;18.50;99.90;;;16.28;100.00;100414.66;4936397;28;20046;-91
2022/05/16 09:14:52;;;;;;;8.65;4.28;;;18.40;99.90;;;16.30;100.00;100414.44;4945170;28;20055;-91
2022/05/16 09:17:34;;;;;;;13.25;4.50;;;18.50;99.90;;;16.33;100.00;100412.06;4951648;28;20071;-92
2022/05/16 09:20:19;;;;;;;7.35;4.10;;;18.40;99.90;;;16.34;100.00;100410.16;4919994;29;20047;-92
2022/05/16 09:23:00;;;;;;;12.20;3.97;;;18.50;99.90;;;16.34;100.00;100419.25;4920097;29;20044;-89
2022/05/16 09:25:40;;;;;;;9.03;4.03;;;18.40;99.90;;;16.35;100.00;100425.56;4940403;28;20055;-90
2022/05/16 09:30:59;;;;;;;9.88;4.15;;;18.40;99.90;;;16.33;100.00;100430.44;4957465;28;20051;-91
2022/05/16 09:33:30;;;;;;;10.18;3.72;;;18.40;99.90;;;16.33;100.00;100431.28;4952962;28;20328;-91
2022/05/16 09:36:03;;;;;;;8.63;4.05;;;18.40;99.90;;;16.34;100.00;100441.22;4964388;28;20042;-92
2022/05/16 09:38:33;;;;;;;10.25;4.05;;;18.40;99.90;;;16.35;100.00;100442.03;4960258;28;20048;-91
2022/05/16 09:41:22;;;;;;;9.40;3.95;;;18.50;99.90;;;16.42;100.00;100448.31;4960285;28;20101;-91
2022/05/16 09:44:03;;;;;;;10.65;4.20;;;18.70;99.90;;;16.50;100.00;100441.69;4961020;28;20039;-91
2022/05/16 09:46:36;;;;;;;9.25;4.25;;;18.90;99.90;;;16.63;100.00;100452.56;4951802;29;20503;-91
2022/05/16 09:49:12;;;;;;;16.13;4.03;;;19.10;99.90;;;16.74;100.00;100449.06;4935739;28;20047;-91
2022/05/16 09:51:47;;;;;;;11.35;4.35;;;19.10;99.90;;;16.90;100.00;100447.66;4936173;29;20039;-91
2022/05/16 09:54:24;;;;;;;9.70;4.10;;;19.30;99.90;;;16.89;100.00;100451.50;4947910;28;20058;-92
2022/05/16 09:57:19;;;;;;;9.93;4.13;;;19.30;99.90;;;16.91;100.00;100448.53;4935526;29;20058;-90
2022/05/16 09:59:51;;;;;;;10.93;4.00;;;19.40;99.90;;;16.92;100.00;100448.28;4939536;28;20511;-93
2022/05/16 10:02:29;;;;;;;7.68;3.60;;;19.40;99.90;;;16.95;100.00;100455.25;4955142;28;20133;-90
2022/05/16 10:07:44;;;;;;;7.10;3.80;;;19.50;99.90;;;17.10;100.00;100439.19;5288005;22;20422;-90
2022/05/16 10:10:16;;;;;;;9.80;4.00;;;19.70;99.90;;;17.28;100.00;100432.00;4995311;28;20050;-91
2022/05/16 10:12:45;;;;;;;11.93;3.83;;;19.80;99.90;;;17.34;100.00;100433.81;5008653;28;20169;-90
2022/05/16 10:15:13;;;;;;;8.82;3.90;;;19.90;99.90;;;17.34;100.00;100437.44;4985723;28;20046;-90
2022/05/16 10:17:43;;;;;;;13.60;3.90;;;19.80;99.90;;;17.32;100.00;100430.47;4979606;28;20565;-89
2022/05/16 10:20:18;;;;;;;9.63;3.70;;;19.80;99.90;;;17.31;100.00;100428.81;4995471;28;20050;-88
2022/05/16 10:22:46;;;;;;;7.50;3.58;;;19.80;99.90;;;17.31;100.00;100432.38;5013012;28;20100;-91
2022/05/16 10:25:20;;;;;;;7.47;3.47;;;19.90;99.90;;;17.33;100.00;100433.00;4988856;28;20038;-92
2022/05/16 10:27:51;;;;;;;8.60;3.70;;;19.90;99.90;;;17.37;100.00;100436.13;4997495;28;20073;-92
2022/05/16 10:33:24;;;;;;;9.32;3.30;;;20.00;99.90;;;17.43;100.00;100440.69;4995577;28;20053;-93
2022/05/16 10:33:25;;;;;;;8.52;3.50;;;20.10;99.90;;;17.49;100.00;100439.75;4986595;28;20042;-92
2022/05/16 10:36:02;;;;;;;10.95;3.60;;;20.10;99.90;;;17.50;100.00;100441.44;4974995;28;20050;-95
2022/05/16 10:38:46;;;;;;;9.48;4.15;;;20.20;99.90;;;17.55;100.00;100446.25;4996358;28;20054;-93
2022/05/16 10:41:24;;;;;;;9.40;3.70;;;20.30;99.90;;;17.62;100.00;100448.91;4989695;28;20101;-93
2022/05/16 10:44:18;;;;;;;8.23;3.67;;;20.30;99.90;;;17.74;100.00;100447.03;4982061;28;20046;-92
2022/05/16 10:47:00;;;;;;;7.85;3.30;;;20.40;99.90;;;17.75;100.00;100449.56;4969220;28;20073;-93